Eugene, Oregon
Current Conditions -  °F | °C
As of 7:34 PM on Monday 26 Jan 2015 (Local Time) from KEUG Reporting Station
Moderate Fog Moderate Fog  
Wind Chill: 45°   Ceiling: 100
Heat Index: 45°   Visibility: 0.25mi
Dew Point: 44°   Wind: 0mph
Humidity: 97%   Direction: NA
Pressure: 29.98"   Gusts: NA
Location:  44.05°N, 123.08°W
Report Text: KEUG 270334Z 00000KT 1/4SM R16R/1000V1600FT FG VV001 07/07 A2998 RMK AO2 T00720067
Loading
Personal Weather Stations






























Interactive Weather Map New forecast layout! Learn more

10-Day Weather Forecast

Advertisements
Track Severe Weather on mobile